sensor_id;sensor_type;location;lat;lon;timestamp;temperature;humidity
22645;DHT22;11489;50.834;6.752;2023-04-02T00:02:25;8.80;94.40
22645;DHT22;11489;50.834;6.752;2023-04-02T00:07:41;8.80;94.40
22645;DHT22;11489;50.834;6.752;2023-04-02T00:13:05;8.70;94.40
22645;DHT22;11489;50.834;6.752;2023-04-02T00:15:32;8.70;94.50
22645;DHT22;11489;50.834;6.752;2023-04-02T00:17:59;8.60;94.40
22645;DHT22;11489;50.834;6.752;2023-04-02T00:20:27;8.60;94.50
22645;DHT22;11489;50.834;6.752;2023-04-02T00:22:55;8.60;94.50
22645;DHT22;11489;50.834;6.752;2023-04-02T00:25:21;8.50;94.50
22645;DHT22;11489;50.834;6.752;2023-04-02T00:27:47;8.50;94.50
22645;DHT22;11489;50.834;6.752;2023-04-02T00:30:12;8.50;94.50
22645;DHT22;11489;50.834;6.752;2023-04-02T00:32:38;8.40;94.50
22645;DHT22;11489;50.834;6.752;2023-04-02T00:35:26;8.50;94.60
22645;DHT22;11489;50.834;6.752;2023-04-02T00:37:53;8.50;94.70
22645;DHT22;11489;50.834;6.752;2023-04-02T00:40:25;8.50;94.70
22645;DHT22;11489;50.834;6.752;2023-04-02T00:42:58;8.50;94.80
22645;DHT22;11489;50.834;6.752;2023-04-02T00:45:29;8.50;94.90
22645;DHT22;11489;50.834;6.752;2023-04-02T00:47:58;8.50;94.90
22645;DHT22;11489;50.834;6.752;2023-04-02T00:50:35;8.50;94.90
22645;DHT22;11489;50.834;6.752;2023-04-02T00:53:10;8.50;94.90
22645;DHT22;11489;50.834;6.752;2023-04-02T00:55:39;8.50;94.90
22645;DHT22;11489;50.834;6.752;2023-04-02T00:58:25;8.50;94.90
22645;DHT22;11489;50.834;6.752;2023-04-02T01:00:52;8.50;94.90
22645;DHT22;11489;50.834;6.752;2023-04-02T01:06:07;8.50;94.70
22645;DHT22;11489;50.834;6.752;2023-04-02T01:12:18;8.50;94.70
22645;DHT22;11489;50.834;6.752;2023-04-02T01:14:32;8.40;94.60
22645;DHT22;11489;50.834;6.752;2023-04-02T01:17:16;8.50;94.60
22645;DHT22;11489;50.834;6.752;2023-04-02T01:20:09;8.40;94.50
22645;DHT22;11489;50.834;6.752;2023-04-02T01:23:04;8.40;94.50
22645;DHT22;11489;50.834;6.752;2023-04-02T01:25:48;8.40;94.50
22645;DHT22;11489;50.834;6.752;2023-04-02T01:28:24;8.30;94.50
22645;DHT22;11489;50.834;6.752;2023-04-02T01:30:54;8.30;94.40
22645;DHT22;11489;50.834;6.752;2023-04-02T01:33:29;8.20;94.40
22645;DHT22;11489;50.834;6.752;2023-04-02T01:36:10;8.20;94.40
22645;DHT22;11489;50.834;6.752;2023-04-02T01:38:56;8.20;94.50
22645;DHT22;11489;50.834;6.752;2023-04-02T01:41:36;8.10;94.40
22645;DHT22;11489;50.834;6.752;2023-04-02T01:44:11;8.10;94.80
22645;DHT22;11489;50.834;6.752;2023-04-02T01:46:40;8.10;94.40
22645;DHT22;11489;50.834;6.752;2023-04-02T01:49:16;8.00;94.50
22645;DHT22;11489;50.834;6.752;2023-04-02T01:51:48;8.00;94.50
22645;DHT22;11489;50.834;6.752;2023-04-02T01:54:16;8.00;94.50
22645;DHT22;11489;50.834;6.752;2023-04-02T01:56:43;8.00;94.50
22645;DHT22;11489;50.834;6.752;2023-04-02T01:59:10;7.90;94.50
22645;DHT22;11489;50.834;6.752;2023-04-02T02:01:44;7.90;94.50
22645;DHT22;11489;50.834;6.752;2023-04-02T02:04:13;7.90;94.60
22645;DHT22;11489;50.834;6.752;2023-04-02T02:06:41;7.90;94.60
22645;DHT22;11489;50.834;6.752;2023-04-02T02:09:13;7.90;94.60
22645;DHT22;11489;50.834;6.752;2023-04-02T02:11:40;7.90;94.60
22645;DHT22;11489;50.834;6.752;2023-04-02T02:14:20;7.90;94.60
22645;DHT22;11489;50.834;6.752;2023-04-02T02:16:46;7.80;94.50
22645;DHT22;11489;50.834;6.752;2023-04-02T02:19:28;7.80;94.50
22645;DHT22;11489;50.834;6.752;2023-04-02T02:24:32;7.80;94.60
22645;DHT22;11489;50.834;6.752;2023-04-02T02:29:50;7.70;94.60
22645;DHT22;11489;50.834;6.752;2023-04-02T02:32:19;7.70;94.50
22645;DHT22;11489;50.834;6.752;2023-04-02T02:34:51;7.70;94.50
22645;DHT22;11489;50.834;6.752;2023-04-02T02:37:23;7.60;94.50
22645;DHT22;11489;50.834;6.752;2023-04-02T02:39:54;7.60;94.50
22645;DHT22;11489;50.834;6.752;2023-04-02T02:42:29;7.60;94.60
22645;DHT22;11489;50.834;6.752;2023-04-02T02:44:57;7.60;94.60
22645;DHT22;11489;50.834;6.752;2023-04-02T02:47:30;7.50;94.60
22645;DHT22;11489;50.834;6.752;2023-04-02T02:50:01;7.50;94.60
22645;DHT22;11489;50.834;6.752;2023-04-02T02:52:31;7.50;94.60
22645;DHT22;11489;50.834;6.752;2023-04-02T02:55:02;7.50;94.60
22645;DHT22;11489;50.834;6.752;2023-04-02T02:57:35;7.40;94.50
22645;DHT22;11489;50.834;6.752;2023-04-02T03:00:03;7.40;94.50
22645;DHT22;11489;50.834;6.752;2023-04-02T03:02:35;7.40;94.50
22645;DHT22;11489;50.834;6.752;2023-04-02T03:05:03;7.40;94.50
22645;DHT22;11489;50.834;6.752;2023-04-02T03:07:30;7.40;94.50
22645;DHT22;11489;50.834;6.752;2023-04-02T03:10:05;7.30;94.50
22645;DHT22;11489;50.834;6.752;2023-04-02T03:12:55;7.40;94.60
22645;DHT22;11489;50.834;6.752;2023-04-02T03:15:26;7.30;94.60
22645;DHT22;11489;50.834;6.752;2023-04-02T03:18:21;7.30;94.50
22645;DHT22;11489;50.834;6.752;2023-04-02T03:21:20;7.30;94.50
22645;DHT22;11489;50.834;6.752;2023-04-02T03:24:14;7.30;94.60
22645;DHT22;11489;50.834;6.752;2023-04-02T03:26:56;7.30;94.50
22645;DHT22;11489;50.834;6.752;2023-04-02T03:29:29;7.20;94.50
22645;DHT22;11489;50.834;6.752;2023-04-02T03:34:43;7.20;94.60
22645;DHT22;11489;50.834;6.752;2023-04-02T03:42:44;7.20;94.70
22645;DHT22;11489;50.834;6.752;2023-04-02T03:45:21;7.20;94.70
22645;DHT22;11489;50.834;6.752;2023-04-02T03:47:51;7.20;94.70
22645;DHT22;11489;50.834;6.752;2023-04-02T03:50:25;7.20;94.70
22645;DHT22;11489;50.834;6.752;2023-04-02T03:52:52;7.10;94.60
22645;DHT22;11489;50.834;6.752;2023-04-02T03:55:21;7.20;94.70
22645;DHT22;11489;50.834;6.752;2023-04-02T04:00:24;7.10;94.60
22645;DHT22;11489;50.834;6.752;2023-04-02T04:03:00;7.20;94.60
22645;DHT22;11489;50.834;6.752;2023-04-02T04:05:48;7.10;94.60
22645;DHT22;11489;50.834;6.752;2023-04-02T04:08:22;7.10;94.50
22645;DHT22;11489;50.834;6.752;2023-04-02T04:10:57;7.10;94.50
22645;DHT22;11489;50.834;6.752;2023-04-02T04:13:43;7.10;94.50
22645;DHT22;11489;50.834;6.752;2023-04-02T04:16:15;7.10;94.50
22645;DHT22;11489;50.834;6.752;2023-04-02T04:18:58;7.10;94.50
22645;DHT22;11489;50.834;6.752;2023-04-02T04:21:29;7.10;94.50
22645;DHT22;11489;50.834;6.752;2023-04-02T04:24:06;7.10;94.40
22645;DHT22;11489;50.834;6.752;2023-04-02T04:26:45;7.00;94.30
22645;DHT22;11489;50.834;6.752;2023-04-02T04:29:48;7.00;94.30
22645;DHT22;11489;50.834;6.752;2023-04-02T04:35:22;6.90;94.10
22645;DHT22;11489;50.834;6.752;2023-04-02T04:37:55;6.90;94.10
22645;DHT22;11489;50.834;6.752;2023-04-02T04:40:30;6.80;94.10
22645;DHT22;11489;50.834;6.752;2023-04-02T04:43:01;6.80;94.10
22645;DHT22;11489;50.834;6.752;2023-04-02T04:45:41;6.70;94.20
22645;DHT22;11489;50.834;6.752;2023-04-02T04:48:20;6.70;94.20
22645;DHT22;11489;50.834;6.752;2023-04-02T04:50:53;6.70;94.20
22645;DHT22;11489;50.834;6.752;2023-04-02T04:53:23;6.60;94.20
22645;DHT22;11489;50.834;6.752;2023-04-02T04:56:03;6.50;94.20
22645;DHT22;11489;50.834;6.752;2023-04-02T04:58:34;6.60;94.20
22645;DHT22;11489;50.834;6.752;2023-04-02T05:01:11;6.50;94.30
22645;DHT22;11489;50.834;6.752;2023-04-02T05:03:50;6.50;94.30
22645;DHT22;11489;50.834;6.752;2023-04-02T05:09:29;6.40;94.30
22645;DHT22;11489;50.834;6.752;2023-04-02T05:14:50;6.40;94.30
22645;DHT22;11489;50.834;6.752;2023-04-02T05:20:44;6.40;94.30
22645;DHT22;11489;50.834;6.752;2023-04-02T05:23:27;6.30;94.20
22645;DHT22;11489;50.834;6.752;2023-04-02T05:28:50;6.20;94.30
22645;DHT22;11489;50.834;6.752;2023-04-02T05:31:21;6.20;94.30
22645;DHT22;11489;50.834;6.752;2023-04-02T05:33:50;6.20;94.40
22645;DHT22;11489;50.834;6.752;2023-04-02T05:36:23;6.10;94.30
22645;DHT22;11489;50.834;6.752;2023-04-02T05:38:51;6.10;94.40
22645;DHT22;11489;50.834;6.752;2023-04-02T05:41:29;6.10;94.40
22645;DHT22;11489;50.834;6.752;2023-04-02T05:46:53;6.10;94.50
22645;DHT22;11489;50.834;6.752;2023-04-02T05:52:28;6.10;94.50
22645;DHT22;11489;50.834;6.752;2023-04-02T05:57:48;6.00;94.50
22645;DHT22;11489;50.834;6.752;2023-04-02T06:03:20;6.10;94.60
22645;DHT22;11489;50.834;6.752;2023-04-02T06:05:50;6.00;94.60
22645;DHT22;11489;50.834;6.752;2023-04-02T06:08:21;6.00;94.60
22645;DHT22;11489;50.834;6.752;2023-04-02T06:10:56;6.00;94.60
22645;DHT22;11489;50.834;6.752;2023-04-02T06:13:24;6.10;94.60
22645;DHT22;11489;50.834;6.752;2023-04-02T06:15:50;6.00;94.60
22645;DHT22;11489;50.834;6.752;2023-04-02T06:20:44;6.00;94.70
22645;DHT22;11489;50.834;6.752;2023-04-02T06:23:53;6.00;94.60
22645;DHT22;11489;50.834;6.752;2023-04-02T06:26:06;6.00;94.60
22645;DHT22;11489;50.834;6.752;2023-04-02T06:28:39;6.10;94.70
22645;DHT22;11489;50.834;6.752;2023-04-02T06:31:46;6.10;94.60
22645;DHT22;11489;50.834;6.752;2023-04-02T06:34:05;6.00;94.60
22645;DHT22;11489;50.834;6.752;2023-04-02T06:36:32;6.00;94.50
22645;DHT22;11489;50.834;6.752;2023-04-02T06:39:04;6.00;94.40
22645;DHT22;11489;50.834;6.752;2023-04-02T06:41:31;6.00;94.40
22645;DHT22;11489;50.834;6.752;2023-04-02T06:44:04;6.00;94.30
22645;DHT22;11489;50.834;6.752;2023-04-02T06:46:51;6.00;94.40
22645;DHT22;11489;50.834;6.752;2023-04-02T06:49:36;6.00;94.30
22645;DHT22;11489;50.834;6.752;2023-04-02T06:52:05;5.90;94.30
22645;DHT22;11489;50.834;6.752;2023-04-02T06:54:36;5.90;94.30
22645;DHT22;11489;50.834;6.752;2023-04-02T06:57:02;5.90;94.30
22645;DHT22;11489;50.834;6.752;2023-04-02T06:59:29;5.80;94.30
22645;DHT22;11489;50.834;6.752;2023-04-02T07:02:00;5.80;94.40
22645;DHT22;11489;50.834;6.752;2023-04-02T07:04:31;5.80;94.40
22645;DHT22;11489;50.834;6.752;2023-04-02T07:06:57;5.80;94.50
22645;DHT22;11489;50.834;6.752;2023-04-02T07:09:23;5.80;94.50
22645;DHT22;11489;50.834;6.752;2023-04-02T07:11:50;5.70;94.40
22645;DHT22;11489;50.834;6.752;2023-04-02T07:14:15;5.70;94.40
22645;DHT22;11489;50.834;6.752;2023-04-02T07:16:42;5.70;94.40
22645;DHT22;11489;50.834;6.752;2023-04-02T07:19:18;5.70;94.40
22645;DHT22;11489;50.834;6.752;2023-04-02T07:21:45;5.70;94.40
22645;DHT22;11489;50.834;6.752;2023-04-02T07:24:11;5.70;94.50
22645;DHT22;11489;50.834;6.752;2023-04-02T07:26:37;5.70;94.40
22645;DHT22;11489;50.834;6.752;2023-04-02T07:29:06;5.70;94.50
22645;DHT22;11489;50.834;6.752;2023-04-02T07:31:31;5.60;94.50
22645;DHT22;11489;50.834;6.752;2023-04-02T07:33:58;5.60;94.50
22645;DHT22;11489;50.834;6.752;2023-04-02T07:36:25;5.60;94.50
22645;DHT22;11489;50.834;6.752;2023-04-02T07:38:51;5.60;94.50
22645;DHT22;11489;50.834;6.752;2023-04-02T07:41:17;5.60;94.80
22645;DHT22;11489;50.834;6.752;2023-04-02T07:43:44;5.60;94.50
22645;DHT22;11489;50.834;6.752;2023-04-02T07:46:10;5.60;94.50
22645;DHT22;11489;50.834;6.752;2023-04-02T07:48:38;5.60;94.50
22645;DHT22;11489;50.834;6.752;2023-04-02T07:51:11;5.60;94.50
22645;DHT22;11489;50.834;6.752;2023-04-02T07:53:38;5.60;94.60
22645;DHT22;11489;50.834;6.752;2023-04-02T07:56:08;5.60;94.50
22645;DHT22;11489;50.834;6.752;2023-04-02T07:58:37;5.60;94.50
22645;DHT22;11489;50.834;6.752;2023-04-02T08:01:03;5.60;94.50
22645;DHT22;11489;50.834;6.752;2023-04-02T08:03:29;5.60;94.60
22645;DHT22;11489;50.834;6.752;2023-04-02T08:05:57;5.60;94.60
22645;DHT22;11489;50.834;6.752;2023-04-02T08:08:23;5.60;94.70
22645;DHT22;11489;50.834;6.752;2023-04-02T08:10:50;5.70;94.70
22645;DHT22;11489;50.834;6.752;2023-04-02T08:13:17;5.70;94.60
22645;DHT22;11489;50.834;6.752;2023-04-02T08:15:43;5.70;94.70
22645;DHT22;11489;50.834;6.752;2023-04-02T08:18:10;5.70;94.60
22645;DHT22;11489;50.834;6.752;2023-04-02T08:20:36;5.70;94.60
22645;DHT22;11489;50.834;6.752;2023-04-02T08:23:02;5.70;94.50
22645;DHT22;11489;50.834;6.752;2023-04-02T08:25:28;5.70;94.40
22645;DHT22;11489;50.834;6.752;2023-04-02T08:27:54;5.60;94.30
22645;DHT22;11489;50.834;6.752;2023-04-02T08:30:19;5.60;94.30
22645;DHT22;11489;50.834;6.752;2023-04-02T08:32:45;5.60;94.30
22645;DHT22;11489;50.834;6.752;2023-04-02T08:35:14;5.60;94.40
22645;DHT22;11489;50.834;6.752;2023-04-02T08:37:41;5.60;94.40
22645;DHT22;11489;50.834;6.752;2023-04-02T08:40:25;5.50;94.40
22645;DHT22;11489;50.834;6.752;2023-04-02T08:46:35;5.60;94.50
22645;DHT22;11489;50.834;6.752;2023-04-02T08:49:14;5.60;94.50
22645;DHT22;11489;50.834;6.752;2023-04-02T08:51:41;5.60;94.50
22645;DHT22;11489;50.834;6.752;2023-04-02T08:56:55;5.60;94.50
22645;DHT22;11489;50.834;6.752;2023-04-02T09:02:24;5.50;94.50
22645;DHT22;11489;50.834;6.752;2023-04-02T09:04:52;5.50;94.60
22645;DHT22;11489;50.834;6.752;2023-04-02T09:07:18;5.50;94.70
22645;DHT22;11489;50.834;6.752;2023-04-02T09:09:47;5.60;94.80
22645;DHT22;11489;50.834;6.752;2023-04-02T09:12:31;5.60;94.80
22645;DHT22;11489;50.834;6.752;2023-04-02T09:17:35;5.60;94.80
22645;DHT22;11489;50.834;6.752;2023-04-02T09:22:29;5.70;94.90
22645;DHT22;11489;50.834;6.752;2023-04-02T09:25:01;5.70;94.90
22645;DHT22;11489;50.834;6.752;2023-04-02T09:27:32;5.70;94.80
22645;DHT22;11489;50.834;6.752;2023-04-02T09:32:48;5.70;94.70
22645;DHT22;11489;50.834;6.752;2023-04-02T09:35:18;5.80;94.70
22645;DHT22;11489;50.834;6.752;2023-04-02T09:37:44;5.80;94.60
22645;DHT22;11489;50.834;6.752;2023-04-02T09:40:56;5.80;94.50
22645;DHT22;11489;50.834;6.752;2023-04-02T09:43:36;5.80;94.40
22645;DHT22;11489;50.834;6.752;2023-04-02T09:48:52;5.80;94.50
22645;DHT22;11489;50.834;6.752;2023-04-02T09:51:21;5.80;94.50
22645;DHT22;11489;50.834;6.752;2023-04-02T09:54:06;5.80;94.50
22645;DHT22;11489;50.834;6.752;2023-04-02T09:56:34;5.90;94.50
22645;DHT22;11489;50.834;6.752;2023-04-02T10:01:36;5.90;94.70
22645;DHT22;11489;50.834;6.752;2023-04-02T10:04:05;6.00;94.80
22645;DHT22;11489;50.834;6.752;2023-04-02T10:06:33;6.00;95.10
22645;DHT22;11489;50.834;6.752;2023-04-02T10:09:20;6.00;94.50
22645;DHT22;11489;50.834;6.752;2023-04-02T10:11:50;6.10;94.50
22645;DHT22;11489;50.834;6.752;2023-04-02T10:14:22;6.10;94.60
22645;DHT22;11489;50.834;6.752;2023-04-02T10:16:53;6.10;94.50
22645;DHT22;11489;50.834;6.752;2023-04-02T10:19:33;6.20;94.50
22645;DHT22;11489;50.834;6.752;2023-04-02T10:22:13;6.20;94.40
22645;DHT22;11489;50.834;6.752;2023-04-02T10:24:41;6.20;94.30
22645;DHT22;11489;50.834;6.752;2023-04-02T10:32:47;6.30;94.40
22645;DHT22;11489;50.834;6.752;2023-04-02T10:40:44;6.50;94.40
22645;DHT22;11489;50.834;6.752;2023-04-02T10:46:05;6.50;94.50
22645;DHT22;11489;50.834;6.752;2023-04-02T10:49:00;6.60;94.50
22645;DHT22;11489;50.834;6.752;2023-04-02T10:51:42;6.70;94.40
22645;DHT22;11489;50.834;6.752;2023-04-02T10:56:35;6.70;94.10
22645;DHT22;11489;50.834;6.752;2023-04-02T10:59:16;6.70;94.00
22645;DHT22;11489;50.834;6.752;2023-04-02T11:01:43;6.70;94.00
22645;DHT22;11489;50.834;6.752;2023-04-02T11:04:18;6.70;93.80
22645;DHT22;11489;50.834;6.752;2023-04-02T11:06:55;6.70;93.90
22645;DHT22;11489;50.834;6.752;2023-04-02T11:09:28;6.70;94.00
22645;DHT22;11489;50.834;6.752;2023-04-02T11:11:57;6.70;94.00
22645;DHT22;11489;50.834;6.752;2023-04-02T11:14:25;6.70;94.00
22645;DHT22;11489;50.834;6.752;2023-04-02T11:16:54;6.80;94.20
22645;DHT22;11489;50.834;6.752;2023-04-02T11:19:27;6.90;94.30
22645;DHT22;11489;50.834;6.752;2023-04-02T11:29:49;7.10;94.10
22645;DHT22;11489;50.834;6.752;2023-04-02T11:37:40;7.20;93.90
22645;DHT22;11489;50.834;6.752;2023-04-02T11:42:40;7.20;93.50
22645;DHT22;11489;50.834;6.752;2023-04-02T11:55:43;7.40;93.70
22645;DHT22;11489;50.834;6.752;2023-04-02T12:11:34;7.70;93.50
22645;DHT22;11489;50.834;6.752;2023-04-02T12:14:28;7.70;93.20
22645;DHT22;11489;50.834;6.752;2023-04-02T12:16:55;7.70;92.80
22645;DHT22;11489;50.834;6.752;2023-04-02T12:19:22;7.70;92.70
22645;DHT22;11489;50.834;6.752;2023-04-02T12:21:50;7.80;92.80
22645;DHT22;11489;50.834;6.752;2023-04-02T12:24:20;7.80;92.80
22645;DHT22;11489;50.834;6.752;2023-04-02T12:26:47;7.80;93.00
22645;DHT22;11489;50.834;6.752;2023-04-02T12:31:46;7.90;92.90
22645;DHT22;11489;50.834;6.752;2023-04-02T12:34:17;7.80;93.00
22645;DHT22;11489;50.834;6.752;2023-04-02T12:36:53;7.90;93.20
22645;DHT22;11489;50.834;6.752;2023-04-02T12:39:20;7.90;93.00
22645;DHT22;11489;50.834;6.752;2023-04-02T12:41:46;8.00;92.80
22645;DHT22;11489;50.834;6.752;2023-04-02T12:44:17;8.00;92.80
22645;DHT22;11489;50.834;6.752;2023-04-02T12:46:44;8.00;92.40
22645;DHT22;11489;50.834;6.752;2023-04-02T12:52:14;8.10;92.50
22645;DHT22;11489;50.834;6.752;2023-04-02T12:54:49;8.10;92.50
22645;DHT22;11489;50.834;6.752;2023-04-02T12:57:30;8.20;92.60
22645;DHT22;11489;50.834;6.752;2023-04-02T13:00:25;8.20;92.70
22645;DHT22;11489;50.834;6.752;2023-04-02T13:05:40;8.30;92.50
22645;DHT22;11489;50.834;6.752;2023-04-02T13:08:27;8.40;92.30
22645;DHT22;11489;50.834;6.752;2023-04-02T13:10:56;8.40;92.50
22645;DHT22;11489;50.834;6.752;2023-04-02T13:13:28;8.40;91.90
22645;DHT22;11489;50.834;6.752;2023-04-02T13:16:41;8.40;92.00
22645;DHT22;11489;50.834;6.752;2023-04-02T13:19:30;8.40;91.60
22645;DHT22;11489;50.834;6.752;2023-04-02T13:22:01;8.30;91.10
22645;DHT22;11489;50.834;6.752;2023-04-02T13:24:29;8.30;91.10
22645;DHT22;11489;50.834;6.752;2023-04-02T13:27:00;8.20;91.30
22645;DHT22;11489;50.834;6.752;2023-04-02T13:29:31;8.10;91.10
22645;DHT22;11489;50.834;6.752;2023-04-02T13:32:05;8.10;91.50
22645;DHT22;11489;50.834;6.752;2023-04-02T13:34:31;8.10;91.30
22645;DHT22;11489;50.834;6.752;2023-04-02T13:36:57;8.10;91.50
22645;DHT22;11489;50.834;6.752;2023-04-02T13:39:23;8.00;91.50
22645;DHT22;11489;50.834;6.752;2023-04-02T13:41:53;8.00;91.70
22645;DHT22;11489;50.834;6.752;2023-04-02T13:44:26;8.00;91.80
22645;DHT22;11489;50.834;6.752;2023-04-02T13:46:53;8.00;91.50
22645;DHT22;11489;50.834;6.752;2023-04-02T13:49:20;8.00;91.40
22645;DHT22;11489;50.834;6.752;2023-04-02T13:51:50;8.00;91.50
22645;DHT22;11489;50.834;6.752;2023-04-02T13:54:27;8.00;91.50
22645;DHT22;11489;50.834;6.752;2023-04-02T13:56:56;8.00;91.20
22645;DHT22;11489;50.834;6.752;2023-04-02T13:59:22;7.90;91.30
22645;DHT22;11489;50.834;6.752;2023-04-02T14:01:50;7.90;91.40
22645;DHT22;11489;50.834;6.752;2023-04-02T14:04:21;7.90;91.50
22645;DHT22;11489;50.834;6.752;2023-04-02T14:12:17;8.00;91.60
22645;DHT22;11489;50.834;6.752;2023-04-02T14:20:59;8.00;91.30
22645;DHT22;11489;50.834;6.752;2023-04-02T14:23:54;8.00;91.50
22645;DHT22;11489;50.834;6.752;2023-04-02T14:26:56;8.00;91.70
22645;DHT22;11489;50.834;6.752;2023-04-02T14:43:07;8.20;91.30
22645;DHT22;11489;50.834;6.752;2023-04-02T14:48:15;8.10;91.10
22645;DHT22;11489;50.834;6.752;2023-04-02T14:50:43;8.10;90.90
22645;DHT22;11489;50.834;6.752;2023-04-02T14:53:18;8.10;90.90
22645;DHT22;11489;50.834;6.752;2023-04-02T14:55:47;8.10;90.80
22645;DHT22;11489;50.834;6.752;2023-04-02T14:58:24;8.10;90.90
22645;DHT22;11489;50.834;6.752;2023-04-02T15:00:59;8.10;90.90
22645;DHT22;11489;50.834;6.752;2023-04-02T15:03:32;8.00;90.50
22645;DHT22;11489;50.834;6.752;2023-04-02T15:06:11;8.00;90.50
22645;DHT22;11489;50.834;6.752;2023-04-02T15:08:46;8.00;90.70
22645;DHT22;11489;50.834;6.752;2023-04-02T15:11:20;8.00;90.60
22645;DHT22;11489;50.834;6.752;2023-04-02T15:13:48;7.90;90.50
22645;DHT22;11489;50.834;6.752;2023-04-02T15:16:23;7.90;90.50
22645;DHT22;11489;50.834;6.752;2023-04-02T15:18:55;7.90;90.60
22645;DHT22;11489;50.834;6.752;2023-04-02T15:26:52;7.90;90.00
22645;DHT22;11489;50.834;6.752;2023-04-02T15:55:13;7.40;88.20
22645;DHT22;11489;50.834;6.752;2023-04-02T15:58:12;7.40;88.30
22645;DHT22;11489;50.834;6.752;2023-04-02T16:06:27;7.20;86.60
22645;DHT22;11489;50.834;6.752;2023-04-02T16:09:25;7.20;86.40
22645;DHT22;11489;50.834;6.752;2023-04-02T16:12:16;7.10;86.70
22645;DHT22;11489;50.834;6.752;2023-04-02T16:14:45;7.10;86.80
22645;DHT22;11489;50.834;6.752;2023-04-02T16:17:33;7.00;86.80
22645;DHT22;11489;50.834;6.752;2023-04-02T16:20:18;7.00;86.80
22645;DHT22;11489;50.834;6.752;2023-04-02T16:22:52;7.00;87.00
22645;DHT22;11489;50.834;6.752;2023-04-02T16:25:23;7.00;87.30
22645;DHT22;11489;50.834;6.752;2023-04-02T16:33:51;6.90;86.70
22645;DHT22;11489;50.834;6.752;2023-04-02T16:36:34;6.90;86.80
22645;DHT22;11489;50.834;6.752;2023-04-02T16:44:53;6.90;86.50
22645;DHT22;11489;50.834;6.752;2023-04-02T16:47:44;6.90;86.50
22645;DHT22;11489;50.834;6.752;2023-04-02T16:50:51;6.90;86.30
22645;DHT22;11489;50.834;6.752;2023-04-02T16:56:23;6.90;86.00
22645;DHT22;11489;50.834;6.752;2023-04-02T17:01:33;6.80;86.30
22645;DHT22;11489;50.834;6.752;2023-04-02T17:04:42;6.80;86.80
22645;DHT22;11489;50.834;6.752;2023-04-02T17:07:40;6.80;86.30
22645;DHT22;11489;50.834;6.752;2023-04-02T17:13:49;6.80;86.60
22645;DHT22;11489;50.834;6.752;2023-04-02T17:16:00;6.70;86.70
22645;DHT22;11489;50.834;6.752;2023-04-02T17:18:27;6.70;86.30
22645;DHT22;11489;50.834;6.752;2023-04-02T17:20:53;6.70;86.40
22645;DHT22;11489;50.834;6.752;2023-04-02T17:23:22;6.70;86.80
22645;DHT22;11489;50.834;6.752;2023-04-02T17:25:56;6.70;87.10
22645;DHT22;11489;50.834;6.752;2023-04-02T17:28:25;6.70;86.90
22645;DHT22;11489;50.834;6.752;2023-04-02T17:30:56;6.70;87.20
22645;DHT22;11489;50.834;6.752;2023-04-02T17:33:22;6.70;86.60
22645;DHT22;11489;50.834;6.752;2023-04-02T17:36:02;6.60;85.80
22645;DHT22;11489;50.834;6.752;2023-04-02T17:38:42;6.70;85.70
22645;DHT22;11489;50.834;6.752;2023-04-02T17:41:42;6.60;86.00
22645;DHT22;11489;50.834;6.752;2023-04-02T17:44:26;6.60;85.80
22645;DHT22;11489;50.834;6.752;2023-04-02T17:47:21;6.60;86.50
22645;DHT22;11489;50.834;6.752;2023-04-02T18:01:42;6.50;86.70
22645;DHT22;11489;50.834;6.752;2023-04-02T18:04:48;6.50;86.30
22645;DHT22;11489;50.834;6.752;2023-04-02T18:10:12;6.50;87.00
22645;DHT22;11489;50.834;6.752;2023-04-02T18:18:24;6.50;87.00
22645;DHT22;11489;50.834;6.752;2023-04-02T18:21:14;6.50;86.70
22645;DHT22;11489;50.834;6.752;2023-04-02T18:31:41;6.40;87.60
22645;DHT22;11489;50.834;6.752;2023-04-02T18:34:40;6.40;87.50
22645;DHT22;11489;50.834;6.752;2023-04-02T18:48:51;6.30;88.20
22645;DHT22;11489;50.834;6.752;2023-04-02T18:50:54;6.30;88.40
22645;DHT22;11489;50.834;6.752;2023-04-02T18:53:23;6.30;88.80
22645;DHT22;11489;50.834;6.752;2023-04-02T18:56:05;6.30;88.50
22645;DHT22;11489;50.834;6.752;2023-04-02T19:01:22;6.30;88.30
22645;DHT22;11489;50.834;6.752;2023-04-02T19:04:11;6.30;88.80
22645;DHT22;11489;50.834;6.752;2023-04-02T19:06:48;6.30;88.40
22645;DHT22;11489;50.834;6.752;2023-04-02T19:09:26;6.30;88.40
22645;DHT22;11489;50.834;6.752;2023-04-02T19:11:54;6.30;88.80
22645;DHT22;11489;50.834;6.752;2023-04-02T19:14:21;6.30;89.30
22645;DHT22;11489;50.834;6.752;2023-04-02T19:22:56;6.40;88.70
22645;DHT22;11489;50.834;6.752;2023-04-02T19:34:01;6.30;88.40
22645;DHT22;11489;50.834;6.752;2023-04-02T19:36:44;6.30;89.00
22645;DHT22;11489;50.834;6.752;2023-04-02T19:41:57;6.30;89.20
22645;DHT22;11489;50.834;6.752;2023-04-02T19:44:23;6.30;89.40
22645;DHT22;11489;50.834;6.752;2023-04-02T19:46:49;6.30;89.60
22645;DHT22;11489;50.834;6.752;2023-04-02T19:49:25;6.30;89.80
22645;DHT22;11489;50.834;6.752;2023-04-02T19:51:52;6.30;89.50
22645;DHT22;11489;50.834;6.752;2023-04-02T19:54:18;6.30;89.70
22645;DHT22;11489;50.834;6.752;2023-04-02T19:56:44;6.30;89.50
22645;DHT22;11489;50.834;6.752;2023-04-02T19:59:10;6.30;89.60
22645;DHT22;11489;50.834;6.752;2023-04-02T20:01:37;6.30;89.60
22645;DHT22;11489;50.834;6.752;2023-04-02T20:04:03;6.30;89.40
22645;DHT22;11489;50.834;6.752;2023-04-02T20:06:29;6.30;89.20
22645;DHT22;11489;50.834;6.752;2023-04-02T20:08:56;6.30;89.40
22645;DHT22;11489;50.834;6.752;2023-04-02T20:11:23;6.30;89.30
22645;DHT22;11489;50.834;6.752;2023-04-02T20:13:49;6.30;89.40
22645;DHT22;11489;50.834;6.752;2023-04-02T20:16:15;6.30;89.20
22645;DHT22;11489;50.834;6.752;2023-04-02T20:18:41;6.30;89.20
22645;DHT22;11489;50.834;6.752;2023-04-02T20:21:07;6.30;89.20
22645;DHT22;11489;50.834;6.752;2023-04-02T20:23:34;6.30;89.10
22645;DHT22;11489;50.834;6.752;2023-04-02T20:26:00;6.30;88.90
22645;DHT22;11489;50.834;6.752;2023-04-02T20:28:27;6.30;88.80
22645;DHT22;11489;50.834;6.752;2023-04-02T20:30:53;6.30;88.80
22645;DHT22;11489;50.834;6.752;2023-04-02T20:33:22;6.30;88.80
22645;DHT22;11489;50.834;6.752;2023-04-02T20:35:49;6.30;88.50
22645;DHT22;11489;50.834;6.752;2023-04-02T20:38:16;6.30;88.40
22645;DHT22;11489;50.834;6.752;2023-04-02T20:40:43;6.20;88.40
22645;DHT22;11489;50.834;6.752;2023-04-02T20:43:10;6.20;88.50
22645;DHT22;11489;50.834;6.752;2023-04-02T20:45:36;6.20;88.80
22645;DHT22;11489;50.834;6.752;2023-04-02T20:48:02;6.20;88.50
22645;DHT22;11489;50.834;6.752;2023-04-02T20:50:29;6.20;88.70
22645;DHT22;11489;50.834;6.752;2023-04-02T20:52:57;6.10;88.50
22645;DHT22;11489;50.834;6.752;2023-04-02T20:55:23;6.10;88.60
22645;DHT22;11489;50.834;6.752;2023-04-02T20:57:48;6.00;88.50
22645;DHT22;11489;50.834;6.752;2023-04-02T21:00:14;6.00;88.90
22645;DHT22;11489;50.834;6.752;2023-04-02T21:02:40;5.90;87.90
22645;DHT22;11489;50.834;6.752;2023-04-02T21:05:06;5.90;87.90
22645;DHT22;11489;50.834;6.752;2023-04-02T21:07:31;5.80;87.80
22645;DHT22;11489;50.834;6.752;2023-04-02T21:09:57;5.70;87.50
22645;DHT22;11489;50.834;6.752;2023-04-02T21:12:23;5.60;87.60